createdAt,value
2019-06-07T00:00:38.064Z,1010.33
2019-06-07T00:01:26.257Z,1010.38
2019-06-07T00:02:24.270Z,1010.36
2019-06-07T00:03:29.897Z,1010.44
2019-06-07T00:04:26.766Z,1010.47
2019-06-07T00:05:24.840Z,1010.50
2019-06-07T00:06:26.024Z,1010.53
2019-06-07T00:07:26.280Z,1010.63
2019-06-07T00:08:29.023Z,1010.60
2019-06-07T00:09:27.263Z,1010.67
2019-06-07T00:10:35.793Z,1010.68
2019-06-07T00:11:28.788Z,1010.64
2019-06-07T00:12:26.764Z,1010.63
2019-06-07T00:13:26.240Z,1010.72
2019-06-07T00:14:26.406Z,1010.70
2019-06-07T00:15:29.026Z,1010.71
2019-06-07T00:16:27.761Z,1010.68
2019-06-07T00:17:26.923Z,1010.83
2019-06-07T00:18:27.068Z,1010.75
2019-06-07T00:19:27.222Z,1010.79
2019-06-07T00:20:27.381Z,1010.73
2019-06-07T00:22:13.015Z,1010.67
2019-06-07T00:22:33.469Z,1010.64
2019-06-07T00:23:28.897Z,1010.72
2019-06-07T00:24:28.152Z,1010.64
2019-06-07T00:25:28.302Z,1010.71
2019-06-07T00:27:01.961Z,1010.71
2019-06-07T00:27:28.682Z,1010.73
2019-06-07T00:28:28.932Z,1010.68
2019-06-07T00:29:29.080Z,1010.76
2019-06-07T00:30:41.209Z,1010.70
2019-06-07T00:31:31.344Z,1010.70
2019-06-07T00:32:29.525Z,1010.72
2019-06-07T00:33:29.776Z,1010.72
2019-06-07T00:34:29.998Z,1010.77
2019-06-07T00:35:30.093Z,1010.78
2019-06-07T00:36:30.329Z,1010.72
2019-06-07T00:37:30.458Z,1010.75
2019-06-07T00:38:30.591Z,1010.68
2019-06-07T00:39:30.826Z,1010.67
2019-06-07T00:40:32.270Z,1010.58
2019-06-07T00:41:32.280Z,1010.64
2019-06-07T00:42:31.408Z,1010.55
2019-06-07T00:43:31.633Z,1010.64
2019-06-07T00:44:31.920Z,1010.61
2019-06-07T00:45:32.057Z,1010.77
2019-06-07T00:46:32.204Z,1010.65
2019-06-07T00:47:32.334Z,1010.73
2019-06-07T00:48:33.261Z,1010.81
2019-06-07T00:49:41.052Z,1010.83
2019-06-07T00:50:35.790Z,1010.75
2019-06-07T00:51:49.641Z,1010.81
2019-06-07T00:53:13.180Z,1010.82
2019-06-07T00:53:35.353Z,1010.75
2019-06-07T00:54:33.528Z,1010.80
2019-06-07T00:55:33.699Z,1010.79
2019-06-07T00:56:33.862Z,1010.77
2019-06-07T00:57:34.039Z,1010.76
2019-06-07T00:58:34.236Z,1010.74
2019-06-07T00:59:34.429Z,1010.73
2019-06-07T01:00:34.581Z,1010.76
2019-06-07T01:01:35.299Z,1010.73
2019-06-07T01:02:34.957Z,1010.73
2019-06-07T01:03:35.129Z,1010.70
2019-06-07T01:04:35.273Z,1010.70
2019-06-07T01:05:36.279Z,1010.74
2019-06-07T01:06:35.660Z,1010.74
2019-06-07T01:07:35.811Z,1010.75
2019-06-07T01:08:35.944Z,1010.72
2019-06-07T01:09:36.228Z,1010.74
2019-06-07T01:10:52.956Z,1010.71
2019-06-07T01:11:38.485Z,1010.76
2019-06-07T01:12:36.780Z,1010.78
2019-06-07T01:13:36.905Z,1010.77
2019-06-07T01:14:37.123Z,1010.77
2019-06-07T01:15:37.316Z,1010.73
2019-06-07T01:16:56.398Z,1010.65
2019-06-07T01:17:49.993Z,1010.73
2019-06-07T01:18:46.071Z,1010.73
2019-06-07T01:19:40.005Z,1010.74
2019-06-07T01:20:38.261Z,1010.76
2019-06-07T01:21:38.406Z,1010.80
2019-06-07T01:23:51.965Z,1010.79
2019-06-07T01:24:07.928Z,1010.88
2019-06-07T01:24:40.837Z,1010.87
2019-06-07T01:25:39.146Z,1010.90
2019-06-07T01:26:39.286Z,1010.88
2019-06-07T01:27:39.465Z,1010.91
2019-06-07T01:28:39.668Z,1010.89
2019-06-07T01:29:39.847Z,1010.86
2019-06-07T01:30:39.991Z,1010.82
2019-06-07T01:31:40.156Z,1010.77
2019-06-07T01:32:40.324Z,1010.74
2019-06-07T01:33:50.763Z,1010.75
2019-06-07T01:34:42.692Z,1010.80
2019-06-07T01:35:41.830Z,1010.76
2019-06-07T01:36:41.128Z,1010.78
2019-06-07T01:37:41.339Z,1010.78
2019-06-07T01:38:41.498Z,1010.74
2019-06-07T01:39:42.358Z,1010.75
2019-06-07T01:40:41.852Z,1010.77
2019-06-07T01:41:42.001Z,1010.73
2019-06-07T01:42:42.155Z,1010.70
2019-06-07T01:43:42.283Z,1010.73
2019-06-07T01:44:42.415Z,1010.75
2019-06-07T01:45:42.566Z,1010.81
2019-06-07T01:46:42.707Z,1010.79
2019-06-07T01:47:43.359Z,1010.82
2019-06-07T01:48:49.337Z,1010.81
2019-06-07T01:50:11.220Z,1010.81
2019-06-07T01:50:43.397Z,1010.85
2019-06-07T01:51:43.676Z,1010.83
2019-06-07T01:52:44.333Z,1010.83
2019-06-07T01:53:44.023Z,1010.80
2019-06-07T01:54:57.887Z,1010.86
2019-06-07T01:55:46.350Z,1010.89
2019-06-07T01:56:44.572Z,1010.89
2019-06-07T01:57:48.398Z,1010.84
2019-06-07T01:58:45.861Z,1010.83
2019-06-07T01:59:45.003Z,1010.76
2019-06-07T02:00:45.135Z,1010.70
2019-06-07T02:01:45.247Z,1010.67
2019-06-07T02:02:45.525Z,1010.60
2019-06-07T02:03:45.683Z,1010.61
2019-06-07T02:04:45.844Z,1010.56
2019-06-07T02:05:45.987Z,1010.54
2019-06-07T02:06:46.120Z,1010.50
2019-06-07T02:07:46.253Z,1010.43
2019-06-07T02:08:46.866Z,1010.40
2019-06-07T02:09:46.601Z,1010.39
2019-06-07T02:10:46.739Z,1010.35
2019-06-07T02:11:46.886Z,1010.28
2019-06-07T02:12:47.019Z,1010.25
2019-06-07T02:13:47.841Z,1010.22
2019-06-07T02:14:47.330Z,1010.22
2019-06-07T02:15:47.465Z,1010.22
2019-06-07T02:16:47.594Z,1010.20
2019-06-07T02:18:23.207Z,1010.16
2019-06-07T02:19:01.225Z,1010.18
2019-06-07T02:19:50.394Z,1010.19
2019-06-07T02:20:48.221Z,1010.17
2019-06-07T02:21:48.929Z,1010.23
2019-06-07T02:22:49.360Z,1010.19
2019-06-07T02:23:49.361Z,1010.26
2019-06-07T02:25:34.160Z,1010.27
2019-06-07T02:25:50.753Z,1010.30
2019-06-07T02:26:50.864Z,1010.33
2019-06-07T02:27:51.432Z,1010.27
2019-06-07T02:28:49.656Z,1010.33
2019-06-07T02:29:49.912Z,1010.32
2019-06-07T02:30:59.524Z,1010.38
2019-06-07T02:31:52.387Z,1010.37
2019-06-07T02:32:50.898Z,1010.33
2019-06-07T02:33:50.433Z,1010.36
2019-06-07T02:34:50.630Z,1010.40
2019-06-07T02:35:50.793Z,1010.42
2019-06-07T02:36:51.025Z,1010.36
2019-06-07T02:37:51.187Z,1010.34
2019-06-07T02:38:51.370Z,1010.45
2019-06-07T02:39:52.376Z,1010.32
2019-06-07T02:40:52.404Z,1010.28
2019-06-07T02:41:52.928Z,1010.33
2019-06-07T02:42:52.900Z,1010.28
2019-06-07T02:43:52.324Z,1010.30
2019-06-07T02:44:53.388Z,1010.32
2019-06-07T02:46:35.195Z,1010.24
2019-06-07T02:46:53.781Z,1010.29
2019-06-07T02:47:52.880Z,1010.34
2019-06-07T02:48:53.016Z,1010.30
2019-06-07T02:49:53.137Z,1010.27
2019-06-07T02:50:53.301Z,1010.24
2019-06-07T02:51:53.520Z,1010.31
2019-06-07T02:52:53.670Z,1010.32
2019-06-07T02:53:53.821Z,1010.20
2019-06-07T02:54:53.974Z,1010.25
2019-06-07T02:56:58.968Z,1010.21
2019-06-07T02:57:55.538Z,1010.11
2019-06-07T02:58:54.701Z,1010.06
2019-06-07T03:00:16.588Z,1010.08
2019-06-07T03:01:07.547Z,1010.03
2019-06-07T03:01:57.246Z,1010.03
2019-06-07T03:02:55.901Z,1009.95
2019-06-07T03:03:55.561Z,1009.97
2019-06-07T03:04:55.723Z,1009.97
2019-06-07T03:05:56.416Z,1010.02
2019-06-07T03:06:56.387Z,1010.02
2019-06-07T03:07:57.273Z,1010.02
2019-06-07T03:08:56.396Z,1010.06
2019-06-07T03:09:57.569Z,1010.04
2019-06-07T03:10:56.715Z,1010.01
2019-06-07T03:11:56.927Z,1009.96
2019-06-07T03:12:57.078Z,1010.02
2019-06-07T03:13:57.235Z,1010.03
2019-06-07T03:14:57.390Z,1010.11
2019-06-07T03:15:57.551Z,1010.09
2019-06-07T03:16:57.696Z,1010.00
2019-06-07T03:17:57.842Z,1010.10
2019-06-07T03:18:58.015Z,1010.00
2019-06-07T03:19:58.161Z,1010.00
2019-06-07T03:21:05.397Z,1009.98
2019-06-07T03:22:00.433Z,1009.92
2019-06-07T03:22:58.633Z,1010.00
2019-06-07T03:23:58.802Z,1010.01
2019-06-07T03:24:59.933Z,1009.95
2019-06-07T03:25:59.174Z,1010.04
2019-06-07T03:28:01.645Z,1009.91
2019-06-07T03:28:59.877Z,1009.93
2019-06-07T03:30:00.028Z,1009.95
2019-06-07T03:31:02.904Z,1009.88
2019-06-07T03:32:01.926Z,1009.86
2019-06-07T03:33:00.513Z,1009.83
2019-06-07T03:34:00.927Z,1009.89
2019-06-07T03:35:00.794Z,1009.82
2019-06-07T03:36:13.060Z,1009.86
2019-06-07T03:37:03.122Z,1009.88
2019-06-07T03:38:01.312Z,1009.82
2019-06-07T03:39:01.936Z,1009.88
2019-06-07T03:40:02.025Z,1009.90
2019-06-07T03:41:01.882Z,1009.89
2019-06-07T03:42:39.628Z,1009.91
2019-06-07T03:43:02.928Z,1009.95
2019-06-07T03:44:02.395Z,1009.97
2019-06-07T03:45:02.930Z,1010.01
2019-06-07T03:46:02.657Z,1010.04
2019-06-07T03:47:02.793Z,1010.04
2019-06-07T03:48:02.930Z,1010.17
2019-06-07T03:49:03.161Z,1010.17
2019-06-07T03:50:03.233Z,1010.08
2019-06-07T03:51:05.002Z,1010.10
2019-06-07T03:52:04.612Z,1010.05
2019-06-07T03:53:03.734Z,1010.03
2019-06-07T03:54:04.969Z,1010.06
2019-06-07T03:55:04.467Z,1010.01
2019-06-07T03:56:04.453Z,1010.02
2019-06-07T03:57:04.730Z,1010.03
2019-06-07T03:59:08.001Z,1009.95
2019-06-07T04:00:05.446Z,1009.93
2019-06-07T04:01:05.447Z,1009.91
2019-06-07T04:02:05.506Z,1009.89
2019-06-07T04:03:05.676Z,1009.87
2019-06-07T04:04:05.865Z,1009.83
2019-06-07T04:05:06.940Z,1009.79
2019-06-07T04:06:06.179Z,1009.79
2019-06-07T04:07:06.319Z,1009.79
2019-06-07T04:08:06.940Z,1009.83
2019-06-07T04:09:06.582Z,1009.86
2019-06-07T04:10:55.712Z,1009.82
2019-06-07T04:11:07.853Z,1009.86
2019-06-07T04:12:08.095Z,1009.86
2019-06-07T04:13:07.305Z,1009.85
2019-06-07T04:14:07.445Z,1009.91
2019-06-07T04:15:08.517Z,1009.76
2019-06-07T04:16:07.799Z,1009.85
2019-06-07T04:17:07.964Z,1009.86
2019-06-07T04:18:08.972Z,1009.83
2019-06-07T04:19:08.476Z,1009.85
2019-06-07T04:20:08.499Z,1009.83
2019-06-07T04:21:08.831Z,1009.73
2019-06-07T04:22:10.486Z,1009.77
2019-06-07T04:23:27.403Z,1009.60
2019-06-07T04:24:11.153Z,1009.63
2019-06-07T04:25:09.969Z,1009.58
2019-06-07T04:26:09.498Z,1009.56
2019-06-07T04:27:09.642Z,1009.59
2019-06-07T04:28:10.009Z,1009.57
2019-06-07T04:29:32.413Z,1009.46
2019-06-07T04:30:11.213Z,1009.44
2019-06-07T04:31:10.317Z,1009.36
2019-06-07T04:32:10.492Z,1009.32
2019-06-07T04:33:10.981Z,1009.26
2019-06-07T04:34:10.880Z,1009.17
2019-06-07T04:35:11.054Z,1009.12
2019-06-07T04:36:11.219Z,1009.06
2019-06-07T04:37:11.332Z,1009.03
2019-06-07T04:38:11.484Z,1009.03
2019-06-07T04:39:11.603Z,1008.97
2019-06-07T04:40:11.746Z,1008.93
2019-06-07T04:41:12.466Z,1008.87
2019-06-07T04:42:12.051Z,1008.86
2019-06-07T04:43:12.187Z,1008.86
2019-06-07T04:44:13.013Z,1008.78
2019-06-07T04:45:33.103Z,1008.81
2019-06-07T04:46:14.691Z,1008.78
2019-06-07T04:47:13.472Z,1008.53
2019-06-07T04:48:13.101Z,1008.33
2019-06-07T04:49:13.273Z,1007.95
2019-06-07T04:50:13.444Z,1007.90
2019-06-07T04:51:14.121Z,1007.94
2019-06-07T04:52:13.825Z,1008.04
2019-06-07T04:53:14.008Z,1008.16
2019-06-07T04:54:14.094Z,1008.23
2019-06-07T04:55:14.987Z,1008.22
2019-06-07T04:56:14.497Z,1008.16
2019-06-07T04:57:14.671Z,1008.16
2019-06-07T04:58:14.985Z,1008.14
2019-06-07T05:00:00.151Z,1008.03
2019-06-07T05:00:46.839Z,1008.04
2019-06-07T05:01:27.253Z,1008.11
2019-06-07T05:02:17.546Z,1007.96
2019-06-07T05:03:15.790Z,1007.87
2019-06-07T05:04:15.951Z,1007.86
2019-06-07T05:05:16.972Z,1007.76
2019-06-07T05:06:16.373Z,1007.75
2019-06-07T05:07:17.504Z,1007.73
2019-06-07T05:08:28.177Z,1007.61
2019-06-07T05:09:18.758Z,1007.56
2019-06-07T05:10:16.885Z,1007.39
2019-06-07T05:11:17.513Z,1007.19
2019-06-07T05:12:17.267Z,1007.12
2019-06-07T05:13:17.432Z,1007.09
2019-06-07T05:14:17.579Z,1006.95
2019-06-07T05:15:17.999Z,1006.88
2019-06-07T05:16:17.896Z,1006.78
2019-06-07T05:17:18.079Z,1006.65
2019-06-07T05:18:18.305Z,1006.66
2019-06-07T05:19:18.464Z,1006.62
2019-06-07T05:20:19.467Z,1006.56
2019-06-07T05:21:18.863Z,1006.49
2019-06-07T05:22:19.068Z,1006.46
2019-06-07T05:24:00.281Z,1006.41
2019-06-07T05:24:21.436Z,1006.39
2019-06-07T05:25:19.653Z,1006.38
2019-06-07T05:26:19.823Z,1006.33
2019-06-07T05:27:19.991Z,1006.30
2019-06-07T05:28:20.169Z,1006.33
2019-06-07T05:29:20.345Z,1006.45
2019-06-07T05:30:59.483Z,1006.46
2019-06-07T05:31:22.702Z,1006.46
2019-06-07T05:32:20.846Z,1006.45
2019-06-07T05:33:20.988Z,1006.45
2019-06-07T05:34:21.136Z,1006.46
2019-06-07T05:35:21.262Z,1006.42
2019-06-07T05:36:22.980Z,1006.40
2019-06-07T05:37:21.623Z,1006.31
2019-06-07T05:38:21.756Z,1006.26
2019-06-07T05:39:21.897Z,1006.21
2019-06-07T05:40:22.022Z,1006.26
2019-06-07T05:41:22.168Z,1006.28
2019-06-07T05:42:22.330Z,1006.32
2019-06-07T05:43:22.464Z,1006.26
2019-06-07T05:44:22.633Z,1006.29
2019-06-07T05:45:22.761Z,1006.22
2019-06-07T05:46:22.883Z,1006.19
2019-06-07T05:47:23.038Z,1006.18
2019-06-07T05:48:23.195Z,1006.12
2019-06-07T05:49:23.984Z,1006.12
2019-06-07T05:50:39.243Z,1006.12
2019-06-07T05:51:25.734Z,1006.09
2019-06-07T05:52:23.848Z,1006.18
2019-06-07T05:53:24.008Z,1006.08
2019-06-07T05:54:24.152Z,1006.04
2019-06-07T05:55:24.272Z,1006.05
2019-06-07T05:56:24.523Z,1006.11
2019-06-07T05:57:24.668Z,1006.04
2019-06-07T05:58:24.833Z,1006.11
2019-06-07T05:59:24.957Z,1006.02
2019-06-07T06:00:25.198Z,1006.02
2019-06-07T06:01:43.109Z,1006.01
2019-06-07T06:02:27.425Z,1005.90
2019-06-07T06:03:59.097Z,1005.84
2019-06-07T06:04:25.799Z,1005.88
2019-06-07T06:05:34.394Z,1005.86
2019-06-07T06:06:28.260Z,1005.88
2019-06-07T06:07:26.470Z,1005.84
2019-06-07T06:08:26.625Z,1005.81
2019-06-07T06:09:26.838Z,1005.76
2019-06-07T06:10:26.995Z,1005.76
2019-06-07T06:11:43.328Z,1005.71
2019-06-07T06:12:35.174Z,1005.76
2019-06-07T06:13:29.597Z,1005.78
2019-06-07T06:14:27.860Z,1005.74
2019-06-07T06:15:42.266Z,1005.71
2019-06-07T06:16:29.517Z,1005.74
2019-06-07T06:17:28.523Z,1005.69
2019-06-07T06:18:28.664Z,1005.72
2019-06-07T06:19:29.035Z,1005.53
2019-06-07T06:20:33.201Z,1005.48
2019-06-07T06:21:31.090Z,1005.38
2019-06-07T06:22:29.286Z,1005.40
2019-06-07T06:23:29.488Z,1005.37
2019-06-07T06:24:29.656Z,1005.26
2019-06-07T06:25:33.048Z,1005.10
2019-06-07T06:26:31.062Z,1004.98
2019-06-07T06:28:03.198Z,1005.11
2019-06-07T06:28:31.348Z,1004.99
2019-06-07T06:29:30.571Z,1004.84
2019-06-07T06:30:30.717Z,1004.34
2019-06-07T06:31:31.027Z,1003.29
2019-06-07T06:32:41.715Z,1001.94
2019-06-07T06:33:34.815Z,1001.95
2019-06-07T06:34:32.577Z,1001.41
2019-06-07T06:35:32.516Z,1001.85
2019-06-07T06:36:31.885Z,1002.32
2019-06-07T06:37:33.033Z,1002.45
2019-06-07T06:38:32.131Z,1002.05
2019-06-07T06:39:32.271Z,1001.51
2019-06-07T06:40:32.448Z,1001.07
2019-06-07T06:41:46.106Z,1001.16
2019-06-07T06:42:34.826Z,1001.77
2019-06-07T06:43:33.045Z,1001.92
2019-06-07T06:44:33.181Z,1002.34
2019-06-07T06:45:33.324Z,1002.68
2019-06-07T06:46:42.046Z,1002.96
2019-06-07T06:47:35.621Z,1003.19
2019-06-07T06:48:34.520Z,1003.32
2019-06-07T06:49:34.520Z,1002.98
2019-06-07T06:50:34.176Z,1002.15
2019-06-07T06:51:34.543Z,1001.60
2019-06-07T06:52:34.462Z,1001.69
2019-06-07T06:53:35.533Z,1002.05
2019-06-07T06:54:40.555Z,1002.54
2019-06-07T06:55:37.043Z,1002.75
2019-06-07T06:56:35.133Z,1003.06
2019-06-07T06:57:35.295Z,1003.22
2019-06-07T06:59:18.369Z,1003.41
2019-06-07T06:59:39.505Z,1003.50
2019-06-07T07:00:48.975Z,1003.62
2019-06-07T07:01:37.543Z,1003.70
2019-06-07T07:03:26.945Z,1003.77
2019-06-07T07:03:57.401Z,1003.91
2019-06-07T07:04:38.386Z,1003.92
2019-06-07T07:05:36.605Z,1003.98
2019-06-07T07:06:36.755Z,1003.93
2019-06-07T07:07:36.870Z,1004.06
2019-06-07T07:08:37.527Z,1003.92
2019-06-07T07:09:37.152Z,1004.05
2019-06-07T07:10:37.306Z,1003.91
2019-06-07T07:11:52.341Z,1003.53
2019-06-07T07:12:40.620Z,1002.74
2019-06-07T07:13:37.775Z,1002.20
2019-06-07T07:14:37.918Z,1001.79
2019-06-07T07:15:38.055Z,1001.38
2019-06-07T07:16:39.243Z,1001.25
2019-06-07T07:17:50.876Z,1001.37
2019-06-07T07:18:41.757Z,1001.66
2019-06-07T07:19:38.762Z,1001.85
2019-06-07T07:20:38.894Z,1002.22
2019-06-07T07:21:39.073Z,1002.48
2019-06-07T07:22:39.591Z,1002.48
2019-06-07T07:23:39.379Z,1002.55
2019-06-07T07:24:39.544Z,1002.40
2019-06-07T07:25:39.743Z,1002.55
2019-06-07T07:26:39.923Z,1002.41
2019-06-07T07:27:40.132Z,1002.22
2019-06-07T07:28:40.292Z,1002.19
2019-06-07T07:29:40.437Z,1002.41
2019-06-07T07:30:41.962Z,1002.38
2019-06-07T07:31:40.765Z,1002.35
2019-06-07T07:32:40.977Z,1002.42
2019-06-07T07:34:23.848Z,1002.43
2019-06-07T07:34:46.020Z,1002.50
2019-06-07T07:36:05.019Z,1002.40
2019-06-07T07:36:44.810Z,1002.36
2019-06-07T07:37:43.757Z,1002.38
2019-06-07T07:38:48.965Z,1002.29
2019-06-07T07:39:45.310Z,1002.20
2019-06-07T07:42:10.836Z,1002.33
2019-06-07T07:42:46.895Z,1002.21
2019-06-07T07:43:49.225Z,1002.38
2019-06-07T07:44:45.029Z,1002.51
2019-06-07T07:45:45.909Z,1002.58
2019-06-07T07:46:45.011Z,1002.59
2019-06-07T07:48:05.485Z,1002.65
2019-06-07T07:48:46.022Z,1002.70
2019-06-07T07:49:48.476Z,1002.48
2019-06-07T07:50:49.758Z,1002.39
2019-06-07T07:51:48.882Z,1002.07
2019-06-07T07:52:48.165Z,1001.89
2019-06-07T07:53:54.626Z,1001.78
2019-06-07T07:54:46.864Z,1001.74
2019-06-07T07:55:45.763Z,1001.63
2019-06-07T07:56:47.025Z,1001.78
2019-06-07T07:57:46.633Z,1001.84
2019-06-07T07:58:50.326Z,1001.83
2019-06-07T08:00:03.260Z,1001.81
2019-06-07T08:00:52.897Z,1001.79
2019-06-07T08:01:49.244Z,1001.88
2019-06-07T08:02:48.830Z,1001.92
2019-06-07T08:03:48.183Z,1002.04
2019-06-07T08:05:49.693Z,1002.06
2019-06-07T08:06:48.912Z,1001.89
2019-06-07T08:07:49.990Z,1001.98
2019-06-07T08:08:48.856Z,1002.03
2019-06-07T08:09:51.476Z,1002.10
2019-06-07T08:10:52.608Z,1002.13
2019-06-07T08:11:52.957Z,1002.10
2019-06-07T08:13:08.893Z,1002.13
2019-06-07T08:13:50.625Z,1002.15
2019-06-07T08:14:51.127Z,1002.25
2019-06-07T08:15:53.323Z,1002.20
2019-06-07T08:16:51.901Z,1002.21
2019-06-07T08:17:51.445Z,1002.29
2019-06-07T08:18:56.295Z,1002.38
2019-06-07T08:19:54.247Z,1002.37
2019-06-07T08:21:08.801Z,1002.47
2019-06-07T08:21:53.055Z,1002.46
2019-06-07T08:22:50.106Z,1002.47
2019-06-07T08:23:57.685Z,1002.60
2019-06-07T08:24:53.711Z,1002.59
2019-06-07T08:25:52.716Z,1002.63
2019-06-07T08:27:12.984Z,1002.53
2019-06-07T08:27:56.001Z,1002.64
2019-06-07T08:28:54.714Z,1002.65
2019-06-07T08:30:08.976Z,1002.63
2019-06-07T08:30:58.257Z,1002.64
2019-06-07T08:31:55.807Z,1002.71
2019-06-07T08:32:57.820Z,1002.69
2019-06-07T08:33:57.061Z,1002.76
2019-06-07T08:34:56.272Z,1002.78
2019-06-07T08:36:10.388Z,1002.81
2019-06-07T08:36:58.408Z,1002.84
2019-06-07T08:38:21.549Z,1002.72
2019-06-07T08:38:57.971Z,1002.71
2019-06-07T08:39:57.562Z,1002.74
2019-06-07T08:40:59.108Z,1002.85
2019-06-07T08:42:13.826Z,1002.74
2019-06-07T08:43:18.159Z,1002.72
2019-06-07T08:43:58.457Z,1002.75
2019-06-07T08:45:01.545Z,1002.80
2019-06-07T08:46:02.271Z,1002.73
2019-06-07T08:47:12.602Z,1002.64
2019-06-07T08:48:01.981Z,1002.78
2019-06-07T08:49:01.399Z,1002.64
2019-06-07T08:50:04.398Z,1002.71
2019-06-07T08:51:02.217Z,1002.67
2019-06-07T08:52:05.662Z,1002.61
2019-06-07T08:53:03.661Z,1002.58
2019-06-07T08:54:18.685Z,1002.44
2019-06-07T08:55:03.384Z,1002.36
2019-06-07T08:56:04.426Z,1002.12
2019-06-07T08:57:17.973Z,1001.98
2019-06-07T08:58:04.075Z,1001.94
2019-06-07T08:59:03.020Z,1002.02
2019-06-07T09:00:06.643Z,1001.88
2019-06-07T09:01:07.770Z,1001.84
2019-06-07T09:02:03.257Z,1001.79
2019-06-07T09:03:05.123Z,1001.63
2019-06-07T09:04:06.529Z,1001.58
2019-06-07T09:05:06.861Z,1001.52
2019-06-07T09:06:06.584Z,1001.38
2019-06-07T09:07:09.069Z,1001.23
2019-06-07T09:08:23.628Z,1001.09
2019-06-07T09:09:03.332Z,1001.11
2019-06-07T09:10:08.285Z,1001.01
2019-06-07T09:11:06.331Z,1000.75
2019-06-07T09:12:08.063Z,1000.76
2019-06-07T09:13:09.953Z,1000.64
2019-06-07T09:14:08.410Z,1000.54
2019-06-07T09:15:14.948Z,1000.56
2019-06-07T09:16:08.106Z,1000.52
2019-06-07T09:17:08.774Z,1000.51
2019-06-07T09:18:37.943Z,1000.62
2019-06-07T09:19:10.095Z,1000.67
2019-06-07T09:20:10.433Z,1000.63
2019-06-07T09:21:08.887Z,1000.52
2019-06-07T09:22:10.292Z,1000.46
2019-06-07T09:23:15.464Z,1000.63
2019-06-07T09:24:09.044Z,1000.49
2019-06-07T09:25:14.690Z,1000.39
2019-06-07T09:26:15.447Z,1000.60
2019-06-07T09:27:07.654Z,1000.56
2019-06-07T09:28:14.391Z,1000.55
2019-06-07T09:29:08.690Z,1000.69
2019-06-07T09:30:15.229Z,1000.67
2019-06-07T09:31:09.773Z,1000.76
2019-06-07T09:32:10.936Z,1000.81
2019-06-07T09:33:07.053Z,1000.82
2019-06-07T09:34:13.711Z,1000.79
2019-06-07T09:35:11.329Z,1000.86
2019-06-07T09:36:10.238Z,1000.80
2019-06-07T09:37:54.744Z,1000.84
2019-06-07T09:38:18.131Z,1000.90
2019-06-07T09:39:10.085Z,1000.89
2019-06-07T09:40:21.713Z,1000.90
2019-06-07T09:41:08.099Z,1000.90
2019-06-07T09:42:10.065Z,1000.86
2019-06-07T09:43:55.380Z,1000.83
2019-06-07T09:44:21.423Z,1000.89
2019-06-07T09:45:11.704Z,1000.99
2019-06-07T09:46:12.817Z,1000.91
2019-06-07T09:47:30.156Z,1000.86
2019-06-07T09:48:13.333Z,1001.03
2019-06-07T09:49:18.817Z,1000.91
2019-06-07T09:50:12.029Z,1001.01
2019-06-07T09:51:19.514Z,1000.99
2019-06-07T09:52:11.038Z,1001.11
2019-06-07T09:53:21.050Z,1001.08
2019-06-07T09:54:11.477Z,1000.99
2019-06-07T09:55:23.119Z,1001.04
2019-06-07T09:56:12.109Z,1001.16
2019-06-07T09:57:16.797Z,1001.17
2019-06-07T09:58:48.543Z,1001.22
2019-06-07T09:59:12.860Z,1001.09
2019-06-07T10:00:37.084Z,1001.20
2019-06-07T10:01:13.748Z,1001.21
2019-06-07T10:02:13.746Z,1001.25
2019-06-07T10:03:20.101Z,1001.11
2019-06-07T10:04:28.557Z,1001.29
2019-06-07T10:05:14.071Z,1001.22
2019-06-07T10:06:13.574Z,1001.03
2019-06-07T10:07:30.190Z,1001.02
2019-06-07T10:08:54.750Z,1000.96
2019-06-07T10:11:12.984Z,1000.79
2019-06-07T10:12:11.203Z,1000.84
2019-06-07T10:13:11.351Z,1000.99
2019-06-07T10:14:11.534Z,1000.82
2019-06-07T10:15:11.668Z,1000.72
2019-06-07T10:16:11.816Z,1000.73
2019-06-07T10:17:11.978Z,1000.74
2019-06-07T10:18:12.128Z,1000.71
2019-06-07T10:19:12.291Z,1000.70
2019-06-07T10:20:12.423Z,1000.57
2019-06-07T10:21:15.240Z,1000.66
2019-06-07T10:22:14.587Z,1000.39
2019-06-07T10:23:13.588Z,1000.38
2019-06-07T10:24:13.129Z,1000.32
2019-06-07T10:25:13.267Z,1000.26
2019-06-07T10:26:14.077Z,1000.20
2019-06-07T10:27:14.086Z,1000.09
2019-06-07T10:28:13.742Z,1000.14
2019-06-07T10:29:14.587Z,1000.00
2019-06-07T10:30:14.117Z,999.84
2019-06-07T10:31:14.282Z,999.76
2019-06-07T10:32:14.404Z,999.67
2019-06-07T10:33:14.576Z,999.72
2019-06-07T10:34:14.731Z,999.54
2019-06-07T10:35:16.499Z,999.65
2019-06-07T10:36:16.141Z,999.61
2019-06-07T10:37:15.899Z,999.56
2019-06-07T10:38:16.371Z,999.60
2019-06-07T10:39:15.618Z,999.49
2019-06-07T10:40:15.746Z,999.43
2019-06-07T10:41:16.591Z,999.28
2019-06-07T10:42:16.105Z,999.24
2019-06-07T10:43:17.081Z,999.09
2019-06-07T10:44:16.446Z,999.03
2019-06-07T10:45:16.593Z,998.83
2019-06-07T10:46:16.747Z,998.74
2019-06-07T10:47:16.869Z,998.54
2019-06-07T10:48:16.993Z,998.53
2019-06-07T10:49:18.082Z,998.42
2019-06-07T10:50:17.301Z,998.20
2019-06-07T10:51:17.598Z,998.29
2019-06-07T10:52:17.625Z,998.30
2019-06-07T10:53:17.772Z,998.22
2019-06-07T10:54:27.916Z,998.30
2019-06-07T10:55:20.051Z,998.31
2019-06-07T10:56:18.290Z,998.36
2019-06-07T10:57:18.440Z,998.28
2019-06-07T10:58:18.617Z,998.26
2019-06-07T10:59:18.756Z,998.26
2019-06-07T11:00:18.939Z,998.26
2019-06-07T11:01:19.119Z,998.22
2019-06-07T11:02:19.295Z,998.26
2019-06-07T11:03:19.457Z,998.41
2019-06-07T11:04:20.607Z,998.43
2019-06-07T11:05:19.855Z,998.53
2019-06-07T11:06:20.116Z,998.57
2019-06-07T11:07:21.127Z,998.64
2019-06-07T11:08:21.109Z,998.76
2019-06-07T11:09:20.491Z,998.70
2019-06-07T11:10:20.644Z,998.75
2019-06-07T11:11:20.822Z,998.84
2019-06-07T11:12:21.119Z,998.88
2019-06-07T11:13:22.102Z,998.83
2019-06-07T11:14:21.372Z,998.92
2019-06-07T11:15:21.538Z,998.83
2019-06-07T11:16:21.663Z,998.96
2019-06-07T11:17:21.836Z,998.89
2019-06-07T11:18:21.995Z,998.87
2019-06-07T11:19:22.156Z,998.86
2019-06-07T11:20:22.318Z,999.00
2019-06-07T11:21:22.521Z,998.85
2019-06-07T11:22:23.605Z,998.98
2019-06-07T11:23:22.843Z,999.03
2019-06-07T11:24:24.710Z,998.98
2019-06-07T11:25:24.194Z,999.04
2019-06-07T11:26:23.332Z,998.99
2019-06-07T11:27:24.115Z,999.10
2019-06-07T11:28:23.627Z,999.00
2019-06-07T11:29:24.630Z,998.93
2019-06-07T11:30:24.044Z,999.05
2019-06-07T11:31:25.202Z,998.97
2019-06-07T11:32:24.452Z,999.01
2019-06-07T11:33:24.595Z,998.88
2019-06-07T11:34:24.735Z,998.91
2019-06-07T11:35:25.626Z,998.85
2019-06-07T11:36:25.145Z,998.79
2019-06-07T11:37:25.145Z,998.74
2019-06-07T11:38:26.123Z,998.75
2019-06-07T11:39:25.499Z,998.74
2019-06-07T11:40:34.410Z,998.78
2019-06-07T11:41:27.884Z,998.72
2019-06-07T11:42:26.616Z,998.61
2019-06-07T11:43:26.104Z,998.50
2019-06-07T11:44:26.251Z,998.52
2019-06-07T11:45:27.117Z,998.46
2019-06-07T11:46:26.546Z,998.56
2019-06-07T11:47:27.617Z,998.44
2019-06-07T11:48:27.618Z,998.42
2019-06-07T11:49:27.112Z,998.47
2019-06-07T11:50:28.109Z,998.28
2019-06-07T11:51:27.505Z,998.41
2019-06-07T11:52:27.640Z,998.31
2019-06-07T11:53:27.805Z,998.37
2019-06-07T11:54:28.610Z,998.25
2019-06-07T11:55:28.099Z,998.21
2019-06-07T11:56:28.271Z,998.26
2019-06-07T11:57:29.118Z,998.17
2019-06-07T11:58:28.647Z,998.17
2019-06-07T11:59:29.612Z,998.08
2019-06-07T12:00:29.025Z,997.96
2019-06-07T12:01:29.194Z,997.97
2019-06-07T12:02:30.146Z,997.88
2019-06-07T12:03:29.545Z,997.87
2019-06-07T12:04:34.728Z,997.82
2019-06-07T12:05:31.956Z,997.74
2019-06-07T12:06:30.153Z,997.76
2019-06-07T12:07:30.291Z,997.67
2019-06-07T12:08:30.429Z,997.58
2019-06-07T12:09:30.605Z,997.48
2019-06-07T12:10:42.016Z,997.45
2019-06-07T12:11:31.986Z,997.39
2019-06-07T12:12:31.258Z,997.21
2019-06-07T12:13:32.133Z,997.19
2019-06-07T12:14:32.135Z,996.99
2019-06-07T12:15:31.662Z,996.98
2019-06-07T12:16:32.625Z,996.95
2019-06-07T12:17:31.986Z,997.01
2019-06-07T12:18:32.117Z,996.96